Skip Navigation Links Skip Navigation Links

Current Weather

Cuiaba Aeroporto, Cuiaba, Brazil

For information only: do not use for flight planning or navigation.
Latest weather
Observation time Thursday, June 21, 2018 6:00 PM BRT
Local time Thursday, June 21, 2018 6:53 PM BRT
Flight conditions Visual Meteorological Conditions
Winds
Wind direction West-Northwest (300°)
Wind speed 6 mph
Visibility 6.2 mi.
Sky condition
Ceiling unlimited
Cloud layer few clouds 4,000 ft.
Temperature 84°F
Dewpoint 57°F
Altimeter 30.00 in.Hg
Derived measurements
Relative humidity 40%
Heat index 84°F
Density altitude 2336 ft.
METAR SBCY 212100Z 30005KT 9999 FEW040 29/14 Q1016

Settings

Location code

InnerDrive.Weather 4.0.6615.0 Release CLR 4.0.30319.42000
Copyright ©2018 Inner Drive Technology. All rights reserved. Portions Copyright ©1986-2018 David Braverman.

Find weather

Site navigation


Skip Navigation Links

Place info

Page info

PayPal - The safer, easier way to pay online!

Return home.

Copyright ©2018 Inner Drive Technology. Purveyors of fine, hand-crafted computer software. Page printed 2018-06-21T21:53:36 UTC.